createdAt,value
2018-01-25T00:00:21.029Z,100526.45
2018-01-25T00:02:48.668Z,100540.47
2018-01-25T00:05:19.671Z,100541.80
2018-01-25T00:07:47.304Z,100537.44
2018-01-25T00:10:14.996Z,100540.73
2018-01-25T00:12:42.779Z,100530.90
2018-01-25T00:15:10.462Z,100522.05
2018-01-25T00:17:38.180Z,100523.94
2018-01-25T00:20:05.966Z,100526.14
2018-01-25T00:22:33.704Z,100524.93
2018-01-25T00:25:01.467Z,100523.28
2018-01-25T00:27:29.206Z,100524.76
2018-01-25T00:29:56.913Z,100522.72
2018-01-25T00:32:24.649Z,100525.25
2018-01-25T00:34:52.420Z,100538.29
2018-01-25T00:37:20.143Z,100537.96
2018-01-25T00:39:47.916Z,100538.72
2018-01-25T00:42:15.638Z,100551.98
2018-01-25T00:44:43.315Z,100550.84
2018-01-25T00:47:11.053Z,100562.79
2018-01-25T00:49:38.815Z,100562.22
2018-01-25T00:52:06.526Z,100561.81
2018-01-25T00:54:34.295Z,100572.31
2018-01-25T00:57:02.029Z,100575.75
2018-01-25T00:59:29.718Z,100583.22
2018-01-25T01:01:57.456Z,100610.56
2018-01-25T01:04:25.136Z,100620.13
2018-01-25T01:06:52.859Z,100628.86
2018-01-25T01:09:20.627Z,100641.33
2018-01-25T01:11:48.384Z,100645.84
2018-01-25T01:14:16.158Z,100648.30
2018-01-25T01:16:43.786Z,100646.15
2018-01-25T01:19:11.551Z,100649.73
2018-01-25T01:21:39.276Z,100657.59
2018-01-25T01:24:07.067Z,100660.39
2018-01-25T01:26:34.699Z,100663.28
2018-01-25T01:29:02.473Z,100662.09
2018-01-25T01:31:30.213Z,100670.81
2018-01-25T01:33:58.008Z,100679.91
2018-01-25T01:36:25.651Z,100685.75
2018-01-25T01:38:53.430Z,100693.81
2018-01-25T01:41:21.179Z,100699.69
2018-01-25T01:43:48.824Z,100696.28
2018-01-25T01:46:16.587Z,100691.05
2018-01-25T01:48:44.312Z,100686.66
2018-01-25T01:51:12.110Z,100684.63
2018-01-25T01:53:39.860Z,100698.97
2018-01-25T01:56:07.655Z,100696.95
2018-01-25T01:58:35.388Z,100691.81
2018-01-25T02:01:03.119Z,100704.87
2018-01-25T02:03:30.834Z,100702.00
2018-01-25T02:05:58.598Z,100703.07
2018-01-25T02:08:26.356Z,100699.08
2018-01-25T02:10:54.032Z,100706.22
2018-01-25T02:13:21.834Z,100704.31
2018-01-25T02:15:49.656Z,100707.33
2018-01-25T02:18:17.391Z,100699.23
2018-01-25T02:20:45.166Z,100708.17
2018-01-25T02:23:12.891Z,100707.80
2018-01-25T02:25:40.700Z,100707.34
2018-01-25T02:28:08.428Z,100708.87
2018-01-25T02:30:36.225Z,100702.48
2018-01-25T02:33:03.945Z,100697.67
2018-01-25T02:35:31.806Z,100693.05
2018-01-25T02:37:59.557Z,100702.34
2018-01-25T02:40:27.347Z,100715.86
2018-01-25T02:42:55.063Z,100719.09
2018-01-25T02:45:22.746Z,100720.48
2018-01-25T02:47:50.480Z,100719.51
2018-01-25T02:50:18.166Z,100713.30
2018-01-25T02:52:45.895Z,100709.02
2018-01-25T02:55:13.678Z,100710.30
2018-01-25T02:57:41.394Z,100705.63
2018-01-25T03:00:09.168Z,100706.60
2018-01-25T03:02:36.924Z,100711.00
2018-01-25T03:05:04.702Z,100720.16
2018-01-25T03:07:32.426Z,100719.65
2018-01-25T03:10:00.112Z,100730.19
2018-01-25T03:12:27.901Z,100735.19
2018-01-25T03:14:55.679Z,100738.66
2018-01-25T03:17:23.406Z,100735.84
2018-01-25T03:19:51.180Z,100742.83
2018-01-25T03:22:18.900Z,100752.81
2018-01-25T03:24:46.627Z,100743.09
2018-01-25T03:27:14.419Z,100750.27
2018-01-25T03:29:42.156Z,100748.79
2018-01-25T03:32:09.931Z,100753.88
2018-01-25T03:34:37.573Z,100756.45
2018-01-25T03:37:05.286Z,100752.63
2018-01-25T03:39:33.015Z,100753.64
2018-01-25T03:42:00.699Z,100758.36
2018-01-25T03:44:28.434Z,100773.81
2018-01-25T03:46:56.263Z,100764.01
2018-01-25T03:49:23.991Z,100754.20
2018-01-25T03:51:51.755Z,100760.30
2018-01-25T03:54:19.487Z,100758.03
2018-01-25T03:56:47.259Z,100769.83
2018-01-25T03:59:14.999Z,100766.18
2018-01-25T04:01:42.700Z,100778.42
2018-01-25T04:04:10.439Z,100782.03
2018-01-25T04:06:38.226Z,100785.92
2018-01-25T04:09:05.958Z,100770.39
2018-01-25T04:11:33.648Z,100763.25
2018-01-25T04:14:01.416Z,100762.98
2018-01-25T04:16:29.180Z,100766.90
2018-01-25T04:18:56.910Z,100768.56
2018-01-25T04:21:24.709Z,100773.45
2018-01-25T04:23:52.430Z,100776.37
2018-01-25T04:26:20.221Z,100790.05
2018-01-25T04:28:47.967Z,100795.50
2018-01-25T04:31:15.745Z,100807.47
2018-01-25T04:33:43.470Z,100816.09
2018-01-25T04:36:11.257Z,100821.33
2018-01-25T04:38:38.975Z,100827.16
2018-01-25T04:41:06.915Z,100842.41
2018-01-25T04:43:34.827Z,100837.56
2018-01-25T04:46:02.724Z,100848.66
2018-01-25T04:48:30.471Z,100836.90
2018-01-25T04:50:58.438Z,100842.91
2018-01-25T04:53:26.250Z,100844.11
2018-01-25T04:55:54.149Z,100839.19
2018-01-25T04:58:22.010Z,100831.61
2018-01-25T05:00:49.830Z,100826.23
2018-01-25T05:03:17.619Z,100820.03
2018-01-25T05:05:45.498Z,100815.59
2018-01-25T05:08:13.310Z,100811.64
2018-01-25T05:10:41.184Z,100824.27
2018-01-25T05:13:09.002Z,100836.22
2018-01-25T05:15:36.858Z,100835.80
2018-01-25T05:18:04.802Z,100833.48
2018-01-25T05:20:32.611Z,100825.06
2018-01-25T05:23:00.569Z,100830.44
2018-01-25T05:25:28.434Z,100836.56
2018-01-25T05:27:56.373Z,100847.24
2018-01-25T05:30:24.123Z,100846.69
2018-01-25T05:32:51.977Z,100859.30
2018-01-25T05:35:19.838Z,100862.08
2018-01-25T05:37:47.766Z,100854.31
2018-01-25T05:40:15.545Z,100845.03
2018-01-25T05:42:43.437Z,100848.11
2018-01-25T05:45:11.237Z,100852.86
2018-01-25T05:47:39.058Z,100850.95
2018-01-25T05:50:06.870Z,100861.73
2018-01-25T05:52:34.705Z,100870.87
2018-01-25T05:55:02.594Z,100866.86
2018-01-25T05:57:30.531Z,100867.13
2018-01-25T05:59:58.320Z,100882.07
2018-01-25T06:02:26.238Z,100876.53
2018-01-25T06:04:54.026Z,100893.44
2018-01-25T06:07:21.805Z,100892.16
2018-01-25T06:09:49.585Z,100883.81
2018-01-25T06:12:17.393Z,100894.03
2018-01-25T06:14:45.141Z,100878.19
2018-01-25T06:17:12.918Z,100874.56
2018-01-25T06:19:40.676Z,100889.50
2018-01-25T06:22:08.489Z,100898.09
2018-01-25T06:24:36.248Z,100914.00
2018-01-25T06:27:25.977Z,100921.63
2018-01-25T06:29:53.698Z,100909.70
2018-01-25T06:32:21.638Z,100893.80
2018-01-25T06:34:49.500Z,100915.67
2018-01-25T06:37:17.401Z,100921.36
2018-01-25T06:39:45.304Z,100922.60
2018-01-25T06:42:13.224Z,100918.58
2018-01-25T06:44:41.074Z,100919.69
2018-01-25T06:47:08.967Z,100922.05
2018-01-25T06:49:36.882Z,100934.80
2018-01-25T06:52:04.823Z,100926.38
2018-01-25T06:54:32.574Z,100915.84
2018-01-25T06:57:00.406Z,100933.45
2018-01-25T06:59:28.251Z,100938.34
2018-01-25T07:01:56.027Z,100943.08
2018-01-25T07:04:23.870Z,100938.50
2018-01-25T07:06:51.771Z,100939.89
2018-01-25T07:09:19.697Z,100931.88
2018-01-25T07:11:47.593Z,100932.44
2018-01-25T07:14:15.378Z,100929.42
2018-01-25T07:16:43.253Z,100944.08
2018-01-25T07:19:11.143Z,100945.36
2018-01-25T07:21:39.017Z,100951.32
2018-01-25T07:24:06.915Z,100961.69
2018-01-25T07:26:34.752Z,100959.33
2018-01-25T07:29:02.577Z,100961.97
2018-01-25T07:31:30.455Z,100966.44
2018-01-25T07:33:58.262Z,100967.66
2018-01-25T07:36:27.262Z,100973.06
2018-01-25T07:38:55.358Z,100978.88
2018-01-25T07:41:23.115Z,100972.92
2018-01-25T07:43:50.922Z,100981.90
2018-01-25T07:46:18.693Z,100987.31
2018-01-25T07:48:46.652Z,100988.39
2018-01-25T07:51:14.544Z,100989.77
2018-01-25T07:53:42.460Z,100978.00
2018-01-25T07:56:10.218Z,100989.30
2018-01-25T07:58:38.009Z,100999.17
2018-01-25T08:01:05.773Z,101006.91
2018-01-25T08:03:33.586Z,100998.87
2018-01-25T08:06:01.402Z,101000.67
2018-01-25T08:08:29.232Z,101010.80
2018-01-25T08:10:57.135Z,101006.50
2018-01-25T08:13:30.529Z,101005.49
2018-01-25T08:16:04.108Z,101004.80
2018-01-25T08:18:32.038Z,101011.18
2018-01-25T08:20:59.992Z,101013.23
2018-01-25T08:23:27.958Z,101005.47
2018-01-25T08:25:55.754Z,101017.78
2018-01-25T08:28:23.698Z,101025.09
2018-01-25T08:30:51.593Z,101018.27
2018-01-25T08:33:20.374Z,101026.70
2018-01-25T08:35:48.284Z,101022.79
2018-01-25T08:38:16.200Z,101014.95
2018-01-25T08:40:44.077Z,101021.28
2018-01-25T08:43:11.987Z,101016.19
2018-01-25T08:45:39.864Z,101009.49
2018-01-25T08:48:07.783Z,101023.02
2018-01-25T08:50:35.683Z,101031.14
2018-01-25T08:53:03.636Z,101032.91
2018-01-25T08:55:31.529Z,101035.41
2018-01-25T08:57:59.452Z,101034.62
2018-01-25T09:00:27.382Z,101040.83
2018-01-25T09:02:55.234Z,101038.44
2018-01-25T09:05:23.210Z,101035.73
2018-01-25T09:07:51.068Z,101035.38
2018-01-25T09:10:18.966Z,101023.68
2018-01-25T09:12:46.888Z,101024.72
2018-01-25T09:15:14.786Z,101029.27
2018-01-25T09:17:42.678Z,101032.56
2018-01-25T09:20:10.571Z,101029.70
2018-01-25T09:22:38.452Z,101036.20
2018-01-25T09:25:06.405Z,101034.91
2018-01-25T09:27:34.168Z,101047.13
2018-01-25T09:30:02.146Z,101052.86
2018-01-25T09:32:29.989Z,101057.72
2018-01-25T09:34:57.941Z,101055.61
2018-01-25T09:37:25.811Z,101061.08
2018-01-25T09:39:53.769Z,101060.94
2018-01-25T09:42:21.681Z,101060.70
2018-01-25T09:44:49.628Z,101069.70
2018-01-25T09:47:17.380Z,101068.52
2018-01-25T09:49:45.277Z,101062.62
2018-01-25T09:52:13.166Z,101066.16
2018-01-25T09:54:41.085Z,101064.97
2018-01-25T09:57:08.974Z,101059.94
2018-01-25T09:59:37.006Z,101061.25
2018-01-25T10:02:05.753Z,101060.75
2018-01-25T10:04:33.664Z,101069.70
2018-01-25T10:07:01.521Z,101074.39
2018-01-25T10:09:29.494Z,101068.62
2018-01-25T10:11:57.398Z,101076.68
2018-01-25T10:14:25.304Z,101080.05
2018-01-25T10:16:53.068Z,101088.03
2018-01-25T10:19:21.011Z,101081.42
2018-01-25T10:21:48.912Z,101085.71
2018-01-25T10:24:16.913Z,101086.09
2018-01-25T10:26:44.762Z,101089.64
2018-01-25T10:29:12.695Z,101094.59
2018-01-25T10:31:40.558Z,101090.81
2018-01-25T10:34:08.475Z,101092.59
2018-01-25T10:36:36.386Z,101092.27
2018-01-25T10:39:04.415Z,101099.29
2018-01-25T10:41:32.336Z,101098.33
2018-01-25T10:44:00.251Z,101106.59
2018-01-25T10:46:28.020Z,101098.89
2018-01-25T10:48:55.882Z,101106.56
2018-01-25T10:51:23.803Z,101097.36
2018-01-25T10:53:51.554Z,101094.63
2018-01-25T10:56:20.345Z,101086.43
2018-01-25T10:58:48.211Z,101087.29
2018-01-25T11:01:21.558Z,101087.03
2018-01-25T11:03:49.413Z,101092.66
2018-01-25T11:06:17.337Z,101097.45
2018-01-25T11:08:45.127Z,101089.80
2018-01-25T11:11:12.936Z,101090.22
2018-01-25T11:13:40.674Z,101081.36
2018-01-25T11:16:08.462Z,101089.38
2018-01-25T11:18:36.270Z,101084.34
2018-01-25T11:21:04.101Z,101088.66
2018-01-25T11:23:32.221Z,101091.05
2018-01-25T11:25:59.803Z,101078.16
2018-01-25T11:28:27.559Z,101081.23
2018-01-25T11:30:55.355Z,101078.73
2018-01-25T11:33:23.110Z,101079.73
2018-01-25T11:35:50.913Z,101073.20
2018-01-25T11:38:18.654Z,101081.45
2018-01-25T11:40:46.443Z,101086.79
2018-01-25T11:43:14.176Z,101087.91
2018-01-25T11:45:41.990Z,101086.70
2018-01-25T11:48:09.741Z,101082.95
2018-01-25T11:50:37.554Z,101091.02
2018-01-25T11:53:05.304Z,101089.48
2018-01-25T11:55:33.103Z,101080.76
2018-01-25T11:58:00.895Z,101083.49
2018-01-25T12:00:28.711Z,101081.31
2018-01-25T12:02:56.450Z,101085.64
2018-01-25T12:05:24.261Z,101085.36
2018-01-25T12:07:52.038Z,101080.63
2018-01-25T12:10:19.825Z,101083.92
2018-01-25T12:12:47.580Z,101080.02
2018-01-25T12:15:15.302Z,101081.55
2018-01-25T12:17:43.114Z,101076.31
2018-01-25T12:20:10.862Z,101072.74
2018-01-25T12:22:38.662Z,101067.08
2018-01-25T12:25:06.457Z,101065.73
2018-01-25T12:27:34.233Z,101062.37
2018-01-25T12:30:01.965Z,101060.87
2018-01-25T12:32:30.164Z,101059.34
2018-01-25T12:34:57.916Z,101054.20
2018-01-25T12:37:25.734Z,101061.34
2018-01-25T12:39:53.502Z,101049.84
2018-01-25T12:42:21.326Z,101046.04
2018-01-25T12:44:49.064Z,101043.67
2018-01-25T12:47:16.869Z,101049.70
2018-01-25T12:49:44.634Z,101047.48
2018-01-25T12:52:12.462Z,101037.89
2018-01-25T12:54:40.197Z,101033.89
2018-01-25T12:57:08.026Z,101045.38
2018-01-25T12:59:35.772Z,101038.16
2018-01-25T13:02:03.573Z,101041.81
2018-01-25T13:04:31.349Z,101045.98
2018-01-25T13:06:59.239Z,101048.62
2018-01-25T13:09:27.019Z,101048.09
2018-01-25T13:11:54.866Z,101045.84
2018-01-25T13:14:22.625Z,101044.19
2018-01-25T13:16:50.441Z,101045.77
2018-01-25T13:19:18.227Z,101043.55
2018-01-25T13:21:46.051Z,101045.77
2018-01-25T13:24:17.177Z,101036.39
2018-01-25T13:26:45.433Z,101040.42
2018-01-25T13:29:15.420Z,101045.62
2018-01-25T13:31:46.460Z,101050.49
2018-01-25T13:34:14.403Z,101045.48
2018-01-25T13:36:42.219Z,101042.75
2018-01-25T13:39:10.062Z,101043.39
2018-01-25T13:41:37.825Z,101040.48
2018-01-25T13:44:05.668Z,101042.05
2018-01-25T13:46:33.483Z,101044.50
2018-01-25T13:49:02.275Z,101042.97
2018-01-25T13:51:30.095Z,101054.09
2018-01-25T13:53:58.042Z,101052.70
2018-01-25T13:56:25.843Z,101053.17
2018-01-25T13:58:53.824Z,101049.50
2018-01-25T14:01:21.594Z,101039.25
2018-01-25T14:03:49.389Z,101033.88
2018-01-25T14:06:17.139Z,101034.76
2018-01-25T14:08:45.038Z,101041.58
2018-01-25T14:11:13.057Z,101036.66
2018-01-25T14:13:40.874Z,101040.45
2018-01-25T14:16:08.612Z,101033.83
2018-01-25T14:18:36.542Z,101035.72
2018-01-25T14:21:04.406Z,101039.23
2018-01-25T14:23:32.318Z,101032.47
2018-01-25T14:26:00.179Z,101030.09
2018-01-25T14:28:28.149Z,101028.59
2018-01-25T14:30:55.934Z,101027.95
2018-01-25T14:33:23.771Z,101028.09
2018-01-25T14:35:51.760Z,101021.88
2018-01-25T14:38:19.680Z,101018.12
2018-01-25T14:40:47.549Z,101024.38
2018-01-25T14:43:15.454Z,101033.59
2018-01-25T14:45:43.466Z,101035.95
2018-01-25T14:48:11.531Z,101047.37
2018-01-25T14:50:39.429Z,101051.86
2018-01-25T14:53:07.351Z,101048.19
2018-01-25T14:55:35.088Z,101039.66
2018-01-25T14:58:03.007Z,101043.37
2018-01-25T15:00:30.881Z,101042.59
2018-01-25T15:02:59.010Z,101046.41
2018-01-25T15:05:26.722Z,101062.59
2018-01-25T15:07:54.643Z,101053.67
2018-01-25T15:10:22.409Z,101052.28
2018-01-25T15:12:50.626Z,101049.19
2018-01-25T15:15:18.489Z,101054.56
2018-01-25T15:17:46.396Z,101048.70
2018-01-25T15:20:14.322Z,101054.92
2018-01-25T15:22:42.245Z,101049.19
2018-01-25T15:25:15.691Z,101050.42
2018-01-25T15:27:43.646Z,101047.63
2018-01-25T15:30:11.504Z,101051.87
2018-01-25T15:32:39.441Z,101054.41
2018-01-25T15:35:07.375Z,101054.33
2018-01-25T15:37:35.230Z,101051.33
2018-01-25T15:40:03.178Z,101051.66
2018-01-25T15:42:30.947Z,101056.84
2018-01-25T15:44:58.777Z,101060.05
2018-01-25T15:47:26.638Z,101065.06
2018-01-25T15:49:54.426Z,101067.19
2018-01-25T15:52:22.193Z,101066.11
2018-01-25T15:54:50.027Z,101065.92
2018-01-25T15:57:17.913Z,101069.14
2018-01-25T15:59:45.849Z,101059.63
2018-01-25T16:02:13.586Z,101063.45
2018-01-25T16:04:41.496Z,101065.01
2018-01-25T16:07:09.339Z,101060.87
2018-01-25T16:09:37.281Z,101067.28
2018-01-25T16:12:05.154Z,101068.55
2018-01-25T16:14:33.045Z,101067.61
2018-01-25T16:17:00.811Z,101064.58
2018-01-25T16:19:28.774Z,101068.48
2018-01-25T16:21:56.642Z,101069.64
2018-01-25T16:24:24.446Z,101079.06
2018-01-25T16:26:52.230Z,101084.19
2018-01-25T16:29:20.060Z,101096.95
2018-01-25T16:31:47.968Z,101091.69
2018-01-25T16:34:15.888Z,101080.02
2018-01-25T16:36:43.688Z,101079.73
2018-01-25T16:39:11.744Z,101069.06
2018-01-25T16:41:39.500Z,101071.42
2018-01-25T16:44:07.428Z,101077.23
2018-01-25T16:46:35.173Z,101077.84
2018-01-25T16:49:03.029Z,101083.44
2018-01-25T16:51:30.794Z,101083.59
2018-01-25T16:53:58.751Z,101086.27
2018-01-25T16:56:26.606Z,101081.61
2018-01-25T16:58:54.397Z,101074.97
2018-01-25T17:01:22.217Z,101071.00
2018-01-25T17:03:50.155Z,101080.57
2018-01-25T17:06:18.032Z,101082.14
2018-01-25T17:08:45.859Z,101082.88
2018-01-25T17:11:13.638Z,101094.27
2018-01-25T17:13:41.487Z,101104.28
2018-01-25T17:16:09.239Z,101098.78
2018-01-25T17:18:36.988Z,101097.13
2018-01-25T17:21:04.824Z,101100.72
2018-01-25T17:23:32.654Z,101096.14
2018-01-25T17:26:00.444Z,101107.09
2018-01-25T17:28:28.189Z,101102.12
2018-01-25T17:30:56.010Z,101102.66
2018-01-25T17:33:23.766Z,101107.48
2018-01-25T17:35:51.557Z,101111.53
2018-01-25T17:38:19.305Z,101118.73
2018-01-25T17:40:47.195Z,101119.41
2018-01-25T17:43:14.970Z,101114.46
2018-01-25T17:45:42.794Z,101108.10
2018-01-25T17:48:10.542Z,101103.97
2018-01-25T17:50:38.352Z,101091.22
2018-01-25T17:53:06.157Z,101089.59
2018-01-25T17:55:34.013Z,101092.20
2018-01-25T17:58:01.783Z,101094.97
2018-01-25T18:00:29.582Z,101106.77
2018-01-25T18:02:57.314Z,101109.25
2018-01-25T18:05:25.131Z,101115.22
2018-01-25T18:07:52.950Z,101120.36
2018-01-25T18:10:20.806Z,101131.59
2018-01-25T18:12:48.578Z,101144.60
2018-01-25T18:15:16.378Z,101153.33
2018-01-25T18:17:44.150Z,101155.37
2018-01-25T18:20:12.015Z,101153.45
2018-01-25T18:22:39.780Z,101154.70
2018-01-25T18:25:07.642Z,101159.52
2018-01-25T18:27:35.450Z,101156.75
2018-01-25T18:30:03.280Z,101150.25
2018-01-25T18:32:31.137Z,101160.23
2018-01-25T18:34:58.999Z,101162.59
2018-01-25T18:37:26.822Z,101150.81
2018-01-25T18:39:54.640Z,101157.06
2018-01-25T18:42:22.401Z,101153.04
2018-01-25T18:44:50.235Z,101154.44
2018-01-25T18:47:17.990Z,101155.56
2018-01-25T18:49:45.818Z,101157.08
2018-01-25T18:52:13.578Z,101158.72
2018-01-25T18:54:41.376Z,101152.79
2018-01-25T18:57:09.198Z,101150.55
2018-01-25T18:59:36.975Z,101150.96
2018-01-25T19:02:04.785Z,101148.02
2018-01-25T19:04:32.557Z,101139.01
2018-01-25T19:07:00.376Z,101142.45
2018-01-25T19:09:28.181Z,101141.06
2018-01-25T19:11:56.004Z,101149.13
2018-01-25T19:14:23.771Z,101152.01
2018-01-25T19:16:51.601Z,101154.91
2018-01-25T19:19:19.367Z,101162.25
2018-01-25T19:21:47.174Z,101155.45
2018-01-25T19:24:14.979Z,101161.58
2018-01-25T19:26:42.775Z,101156.72
2018-01-25T19:29:10.501Z,101147.33
2018-01-25T19:31:38.315Z,101153.00
2018-01-25T19:34:06.104Z,101140.14
2018-01-25T19:36:33.894Z,101137.94
2018-01-25T19:39:01.641Z,101133.67
2018-01-25T19:41:29.427Z,101136.34
2018-01-25T19:43:57.166Z,101121.55
2018-01-25T19:46:24.972Z,101127.09
2018-01-25T19:48:52.795Z,101126.69
2018-01-25T19:51:20.607Z,101128.21
2018-01-25T19:53:48.369Z,101131.41
2018-01-25T19:56:16.180Z,101142.36
2018-01-25T19:58:43.934Z,101147.35
2018-01-25T20:01:11.753Z,101144.30
2018-01-25T20:03:39.493Z,101148.73
2018-01-25T20:06:07.409Z,101146.64
2018-01-25T20:08:35.174Z,101139.72
2018-01-25T20:11:03.086Z,101143.19
2018-01-25T20:13:30.869Z,101147.88
2018-01-25T20:15:58.687Z,101153.95
2018-01-25T20:18:26.490Z,101154.36
2018-01-25T20:20:54.294Z,101157.12
2018-01-25T20:23:22.106Z,101149.35
2018-01-25T20:25:49.937Z,101153.92
2018-01-25T20:28:17.717Z,101150.47
2018-01-25T20:30:45.536Z,101146.31
2018-01-25T20:33:13.330Z,101143.69
2018-01-25T20:35:41.113Z,101141.75
2018-01-25T20:38:08.884Z,101151.45
2018-01-25T20:40:36.651Z,101147.73
2018-01-25T20:43:04.435Z,101145.77
2018-01-25T20:45:32.210Z,101142.63
2018-01-25T20:48:00.025Z,101143.85
2018-01-25T20:50:27.795Z,101144.56
2018-01-25T20:52:55.629Z,101145.78
2018-01-25T20:55:23.464Z,101145.40
2018-01-25T20:57:51.914Z,101142.88
2018-01-25T21:00:20.142Z,101149.27
2018-01-25T21:02:47.951Z,101152.03
2018-01-25T21:05:15.733Z,101141.80
2018-01-25T21:07:43.535Z,101138.50
2018-01-25T21:10:11.280Z,101142.78
2018-01-25T21:12:39.089Z,101138.09
2018-01-25T21:15:06.850Z,101141.13
2018-01-25T21:17:34.671Z,101139.94
2018-01-25T21:20:02.441Z,101139.66
2018-01-25T21:22:30.254Z,101132.48
2018-01-25T21:24:58.026Z,101148.67
2018-01-25T21:27:25.853Z,101143.13
2018-01-25T21:29:53.602Z,101139.65
2018-01-25T21:32:31.762Z,101140.20
2018-01-25T21:34:59.536Z,101137.84
2018-01-25T21:37:27.344Z,101144.94
2018-01-25T21:39:55.157Z,101147.85
2018-01-25T21:42:22.985Z,101147.58
2018-01-25T21:44:50.740Z,101151.91
2018-01-25T21:47:18.544Z,101152.59
2018-01-25T21:49:46.321Z,101158.97
2018-01-25T21:52:14.134Z,101152.77
2018-01-25T21:54:41.897Z,101157.77
2018-01-25T21:57:09.783Z,101155.55
2018-01-25T21:59:37.589Z,101161.38
2018-01-25T22:02:05.523Z,101154.05
2018-01-25T22:04:33.310Z,101156.52
2018-01-25T22:07:01.175Z,101155.98
2018-01-25T22:09:29.045Z,101149.75
2018-01-25T22:11:56.870Z,101160.00
2018-01-25T22:14:24.671Z,101160.55
2018-01-25T22:16:52.495Z,101160.39
2018-01-25T22:19:20.249Z,101160.13
2018-01-25T22:21:48.094Z,101160.00
2018-01-25T22:24:15.996Z,101151.42
2018-01-25T22:26:43.791Z,101157.89
2018-01-25T22:29:11.574Z,101153.33
2018-01-25T22:31:39.352Z,101157.05
2018-01-25T22:34:07.171Z,101158.31
2018-01-25T22:36:34.933Z,101154.88
2018-01-25T22:39:02.750Z,101159.15
2018-01-25T22:41:30.630Z,101156.67
2018-01-25T22:43:58.428Z,101164.13
2018-01-25T22:46:26.190Z,101169.24
2018-01-25T22:48:54.094Z,101168.41
2018-01-25T22:51:21.955Z,101177.24
2018-01-25T22:53:49.866Z,101167.44
2018-01-25T22:56:17.746Z,101166.35
2018-01-25T22:58:45.560Z,101161.78
2018-01-25T23:01:20.216Z,101169.91
2018-01-25T23:03:48.058Z,101172.84
2018-01-25T23:06:15.930Z,101172.97
2018-01-25T23:08:43.785Z,101165.64
2018-01-25T23:11:11.552Z,101177.11
2018-01-25T23:13:39.436Z,101182.22
2018-01-25T23:16:07.238Z,101179.04
2018-01-25T23:18:35.069Z,101172.28
2018-01-25T23:21:02.830Z,101177.66
2018-01-25T23:23:30.783Z,101178.36
2018-01-25T23:25:58.526Z,101170.23
2018-01-25T23:28:26.446Z,101183.08
2018-01-25T23:30:54.345Z,101176.72
2018-01-25T23:33:22.209Z,101166.20
2018-01-25T23:35:50.052Z,101167.45
2018-01-25T23:38:17.981Z,101169.67
2018-01-25T23:40:45.929Z,101174.36
2018-01-25T23:43:13.850Z,101175.74
2018-01-25T23:45:41.639Z,101180.69
2018-01-25T23:48:09.532Z,101174.77
2018-01-25T23:50:37.284Z,101175.86
2018-01-25T23:53:05.089Z,101182.48
2018-01-25T23:55:32.953Z,101180.84
2018-01-25T23:58:00.757Z,101181.27
